Time;durP1;ratioP1;P1;durP2;ratioP2;P2;SDS_P1;SDS_P2;PMS_P1;PMS_P2;Temp;Humidity;BMP_temperature;BMP_pressure;BME280_temperature;BME280_humidity;BME280_pressure;Samples;Min_cycle;Max_cycle;Signal;HPM_P1;HPM_P2
2021/05/05 00:01:03;;;;;;;;;;;7.10;99.90;;;;;;5092470;28;19908;-69
2021/05/05 00:03:28;;;;;;;;;;;7.10;99.90;;;;;;5092702;28;19912;-70
2021/05/05 00:05:54;;;;;;;;;;;7.00;99.90;;;;;;5090033;28;19912;-69
2021/05/05 00:08:20;;;;;;;;;;;6.90;99.90;;;;;;5092340;28;20457;-69
2021/05/05 00:10:46;;;;;;;;;;;6.80;99.90;;;;;;5092542;28;19911;-70
2021/05/05 00:13:12;;;;;;;;;;;6.80;99.90;;;;;;5092182;28;19911;-69
2021/05/05 00:15:37;;;;;;;;;;;6.70;99.90;;;;;;5091840;28;19912;-69
2021/05/05 00:18:03;;;;;;;;;;;6.70;99.90;;;;;;5090570;28;20078;-69
2021/05/05 00:20:28;;;;;;;;;;;6.60;99.90;;;;;;5091460;28;19995;-69
2021/05/05 00:22:54;;;;;;;;;;;6.60;99.90;;;;;;5092069;28;19908;-69
2021/05/05 00:25:20;;;;;;;;;;;6.60;99.90;;;;;;5090829;28;19915;-69
2021/05/05 00:27:46;;;;;;;;;;;6.60;99.90;;;;;;5086725;28;19909;-69
2021/05/05 00:30:12;;;;;;;;;;;6.50;99.90;;;;;;5087811;28;19923;-69
2021/05/05 00:32:38;;;;;;;;;;;6.50;99.90;;;;;;5092028;28;19908;-70
2021/05/05 00:35:04;;;;;;;;;;;6.50;99.90;;;;;;5092149;28;19915;-69
2021/05/05 00:37:29;;;;;;;;;;;6.50;99.90;;;;;;5090917;28;19916;-69
2021/05/05 00:39:56;;;;;;;;;;;6.50;99.90;;;;;;5091768;28;19908;-69
2021/05/05 00:42:22;;;;;;;;;;;6.50;99.90;;;;;;5091779;28;19912;-70
2021/05/05 00:44:48;;;;;;;;;;;6.50;99.90;;;;;;5091894;28;20373;-69
2021/05/05 00:47:14;;;;;;;;;;;6.50;99.90;;;;;;5090845;28;19947;-69
2021/05/05 00:49:40;;;;;;;;;;;6.50;99.90;;;;;;5091737;28;19934;-69
2021/05/05 00:52:05;;;;;;;;;;;6.50;99.90;;;;;;5092116;28;20360;-69
2021/05/05 00:54:31;;;;;;;;;;;6.50;99.90;;;;;;5091547;28;19962;-69
2021/05/05 00:56:57;;;;;;;;;;;6.50;99.90;;;;;;5090744;28;19908;-70
2021/05/05 00:59:23;;;;;;;;;;;6.40;99.90;;;;;;5082946;28;20311;-70
2021/05/05 01:01:49;;;;;;;;;;;6.40;99.90;;;;;;5091602;28;20369;-69
2021/05/05 01:04:15;;;;;;;;;;;6.50;99.90;;;;;;5091467;28;19908;-69
2021/05/05 01:06:40;;;;;;;;;;;6.40;99.90;;;;;;5090457;28;19918;-70
2021/05/05 01:09:06;;;;;;;;;;;6.40;99.90;;;;;;5091416;28;19912;-70
2021/05/05 01:11:32;;;;;;;;;;;6.40;99.90;;;;;;5091541;28;19908;-69
2021/05/05 01:13:57;;;;;;;;;;;6.40;99.90;;;;;;5087413;28;20379;-69
2021/05/05 01:16:23;;;;;;;;;;;6.40;99.90;;;;;;5090408;28;19908;-70
2021/05/05 01:18:51;;;;;;;;;;;6.40;99.90;;;;;;5091421;28;19908;-69
2021/05/05 01:21:17;;;;;;;;;;;6.40;99.90;;;;;;5091363;28;19915;-69
2021/05/05 01:23:43;;;;;;;;;;;6.40;99.90;;;;;;5091262;28;20261;-69
2021/05/05 01:26:08;;;;;;;;;;;6.40;99.90;;;;;;5090193;28;19915;-70
2021/05/05 01:28:35;;;;;;;;;;;6.40;99.90;;;;;;5082144;28;20022;-70
2021/05/05 01:31:01;;;;;;;;;;;6.50;99.90;;;;;;5090879;28;19943;-69
2021/05/05 01:33:26;;;;;;;;;;;6.50;99.90;;;;;;5090526;28;19934;-69
2021/05/05 01:35:51;;;;;;;;;;;6.50;99.90;;;;;;5089842;28;19969;-69
2021/05/05 01:38:17;;;;;;;;;;;6.50;99.90;;;;;;5090600;28;19930;-69
2021/05/05 01:40:43;;;;;;;;;;;6.50;99.90;;;;;;5090855;28;19954;-69
2021/05/05 01:43:08;;;;;;;;;;;6.50;99.90;;;;;;5090781;28;20289;-69
2021/05/05 01:45:35;;;;;;;;;;;6.50;99.90;;;;;;5089110;28;20320;-69
2021/05/05 01:48:03;;;;;;;;;;;6.50;99.90;;;;;;5090467;28;19955;-69
2021/05/05 01:50:28;;;;;;;;;;;6.50;99.90;;;;;;5090494;28;19944;-69
2021/05/05 01:52:54;;;;;;;;;;;6.50;99.90;;;;;;5090554;28;19946;-69
2021/05/05 01:55:20;;;;;;;;;;;6.50;99.90;;;;;;5090732;28;20381;-69
2021/05/05 01:57:46;;;;;;;;;;;6.50;99.90;;;;;;5085359;28;19928;-69
2021/05/05 02:00:12;;;;;;;;;;;6.50;99.90;;;;;;5086757;28;19924;-69
2021/05/05 02:02:38;;;;;;;;;;;6.40;99.90;;;;;;5089501;28;20472;-69
2021/05/05 02:05:04;;;;;;;;;;;6.30;99.90;;;;;;5089093;28;20364;-69
2021/05/05 02:07:30;;;;;;;;;;;6.30;99.90;;;;;;5089453;28;19934;-69
2021/05/05 02:09:55;;;;;;;;;;;6.20;99.90;;;;;;5090621;28;19912;-69
2021/05/05 02:12:21;;;;;;;;;;;6.20;99.90;;;;;;5090629;28;19920;-69
2021/05/05 02:14:47;;;;;;;;;;;6.20;99.90;;;;;;5088990;28;19908;-69
2021/05/05 02:17:12;;;;;;;;;;;6.20;99.90;;;;;;5089532;28;20402;-69
2021/05/05 02:19:38;;;;;;;;;;;6.20;99.90;;;;;;5090346;28;19908;-69
2021/05/05 02:22:03;;;;;;;;;;;6.20;99.90;;;;;;5090705;28;19987;-69
2021/05/05 02:24:29;;;;;;;;;;;6.30;99.90;;;;;;5090535;28;19908;-69
2021/05/05 02:26:54;;;;;;;;;;;6.20;99.90;;;;;;5083407;28;19962;-69
2021/05/05 02:29:20;;;;;;;;;;;6.20;99.90;;;;;;5087101;28;19970;-69
2021/05/05 02:31:46;;;;;;;;;;;6.30;99.90;;;;;;5090533;28;19908;-69
2021/05/05 02:34:12;;;;;;;;;;;6.20;99.90;;;;;;5090333;28;19908;-69
2021/05/05 02:36:37;;;;;;;;;;;6.30;99.90;;;;;;5089187;28;19919;-69
2021/05/05 02:39:05;;;;;;;;;;;6.30;99.90;;;;;;5090105;28;20384;-69
2021/05/05 02:41:31;;;;;;;;;;;6.30;99.90;;;;;;5090358;28;19912;-69
2021/05/05 02:43:56;;;;;;;;;;;6.30;99.90;;;;;;5090772;28;19927;-69
2021/05/05 02:46:22;;;;;;;;;;;6.30;99.90;;;;;;5093516;28;20307;-69
2021/05/05 02:48:48;;;;;;;;;;;6.40;99.90;;;;;;5086503;28;19912;-69
2021/05/05 02:51:13;;;;;;;;;;;6.30;99.90;;;;;;5093662;28;20257;-69
2021/05/05 02:53:39;;;;;;;;;;;6.30;99.90;;;;;;5093863;28;19916;-69
2021/05/05 02:56:04;;;;;;;;;;;6.20;99.90;;;;;;5093112;28;19908;-69
2021/05/05 02:58:30;;;;;;;;;;;6.20;99.90;;;;;;5093489;28;19915;-69
2021/05/05 03:00:55;;;;;;;;;;;6.20;99.90;;;;;;5093783;28;19915;-69
2021/05/05 03:03:21;;;;;;;;;;;6.20;99.90;;;;;;5093523;28;20481;-69
2021/05/05 03:05:46;;;;;;;;;;;6.10;99.90;;;;;;5090672;28;19944;-69
2021/05/05 03:08:13;;;;;;;;;;;6.10;99.90;;;;;;5093574;28;19908;-69
2021/05/05 03:10:39;;;;;;;;;;;6.10;99.90;;;;;;5093724;28;19995;-69
2021/05/05 03:13:04;;;;;;;;;;;6.10;99.90;;;;;;5093551;28;19950;-69
2021/05/05 03:15:30;;;;;;;;;;;6.10;99.90;;;;;;5093483;28;20446;-69
2021/05/05 03:17:55;;;;;;;;;;;6.20;99.90;;;;;;5092418;28;19908;-69
2021/05/05 03:20:21;;;;;;;;;;;6.20;99.90;;;;;;5093240;28;19908;-69
2021/05/05 03:22:47;;;;;;;;;;;6.20;99.90;;;;;;5093497;28;20400;-69
2021/05/05 03:25:12;;;;;;;;;;;6.20;99.90;;;;;;5093363;28;19912;-69
2021/05/05 03:27:38;;;;;;;;;;;6.30;99.90;;;;;;5092134;28;19969;-69
2021/05/05 03:30:04;;;;;;;;;;;6.30;99.90;;;;;;5093284;28;20003;-69
2021/05/05 03:32:33;;;;;;;;;;;6.30;99.90;;;;;;5093179;28;19908;-69
2021/05/05 03:34:59;;;;;;;;;;;6.20;99.90;;;;;;5092261;28;19908;-69
2021/05/05 03:37:24;;;;;;;;;;;6.30;99.90;;;;;;5091672;28;19988;-69
2021/05/05 03:39:50;;;;;;;;;;;6.30;99.90;;;;;;5091654;28;19997;-69
2021/05/05 03:42:15;;;;;;;;;;;6.30;99.90;;;;;;5089330;28;20286;-70
2021/05/05 03:44:41;;;;;;;;;;;6.30;99.90;;;;;;5091545;28;19991;-69
2021/05/05 03:47:06;;;;;;;;;;;6.30;99.90;;;;;;5091901;28;19915;-70
2021/05/05 03:49:33;;;;;;;;;;;6.20;99.90;;;;;;5092842;28;20474;-69
2021/05/05 03:51:59;;;;;;;;;;;6.20;99.90;;;;;;5093231;28;20283;-72
2021/05/05 03:54:24;;;;;;;;;;;6.20;99.90;;;;;;5092839;28;19922;-69
2021/05/05 03:56:50;;;;;;;;;;;6.10;99.90;;;;;;5091695;28;20272;-69
2021/05/05 03:59:15;;;;;;;;;;;6.10;99.90;;;;;;5092799;28;19908;-69
2021/05/05 04:01:41;;;;;;;;;;;6.00;99.90;;;;;;5092327;28;19924;-72
2021/05/05 04:04:06;;;;;;;;;;;5.90;99.90;;;;;;5092590;28;19908;-69
2021/05/05 04:06:32;;;;;;;;;;;5.90;99.90;;;;;;5091134;28;19912;-69
2021/05/05 04:08:57;;;;;;;;;;;5.90;99.90;;;;;;5092066;28;19938;-69
2021/05/05 04:11:23;;;;;;;;;;;5.80;99.90;;;;;;5088474;28;20250;-69
2021/05/05 04:13:48;;;;;;;;;;;5.90;99.90;;;;;;5092059;28;19912;-70
2021/05/05 04:16:14;;;;;;;;;;;5.90;99.90;;;;;;5091296;28;19915;-70
2021/05/05 04:18:39;;;;;;;;;;;5.80;99.90;;;;;;5092255;28;20014;-70
2021/05/05 04:21:07;;;;;;;;;;;5.90;99.90;;;;;;5092004;28;19914;-69
2021/05/05 04:23:33;;;;;;;;;;;5.90;99.90;;;;;;5092533;28;19943;-69
2021/05/05 04:25:59;;;;;;;;;;;5.80;99.90;;;;;;5091071;28;19915;-69
2021/05/05 04:28:25;;;;;;;;;;;5.80;99.90;;;;;;5091963;28;20003;-69
2021/05/05 04:30:50;;;;;;;;;;;5.80;99.90;;;;;;5092448;28;19908;-69
2021/05/05 04:33:16;;;;;;;;;;;5.80;99.90;;;;;;5088723;28;19916;-69
2021/05/05 04:35:41;;;;;;;;;;;5.80;99.90;;;;;;5090429;28;20269;-70
2021/05/05 04:38:07;;;;;;;;;;;5.80;99.90;;;;;;5091839;28;20389;-69
2021/05/05 04:40:32;;;;;;;;;;;5.80;99.90;;;;;;5092058;28;19912;-69
2021/05/05 04:42:58;;;;;;;;;;;5.80;99.90;;;;;;5091946;28;19908;-69
2021/05/05 04:45:24;;;;;;;;;;;5.80;99.90;;;;;;5091690;28;20392;-69
2021/05/05 04:47:49;;;;;;;;;;;5.80;99.90;;;;;;5090748;28;20180;-69
2021/05/05 04:50:15;;;;;;;;;;;5.80;99.90;;;;;;5091463;28;19920;-69
2021/05/05 04:52:40;;;;;;;;;;;5.80;99.90;;;;;;5091732;28;20008;-70
2021/05/05 04:55:06;;;;;;;;;;;5.80;99.90;;;;;;5091823;28;19908;-72
2021/05/05 04:57:32;;;;;;;;;;;5.80;99.90;;;;;;5089408;28;19919;-70
2021/05/05 04:59:58;;;;;;;;;;;5.80;99.90;;;;;;5091557;28;20304;-69
2021/05/05 05:02:23;;;;;;;;;;;5.80;99.90;;;;;;5089264;28;19909;-70
2021/05/05 05:04:49;;;;;;;;;;;5.80;99.90;;;;;;5091074;28;19915;-69
2021/05/05 05:07:14;;;;;;;;;;;5.80;99.90;;;;;;5089736;28;19908;-70
2021/05/05 05:09:40;;;;;;;;;;;5.80;99.90;;;;;;5091235;28;19935;-69
2021/05/05 05:12:06;;;;;;;;;;;5.80;99.90;;;;;;5091396;28;19958;-69
2021/05/05 05:14:31;;;;;;;;;;;5.70;99.90;;;;;;5091193;28;20089;-69
2021/05/05 05:16:58;;;;;;;;;;;5.70;99.90;;;;;;5090262;28;19915;-70
2021/05/05 05:19:23;;;;;;;;;;;5.70;99.90;;;;;;5091297;28;19908;-69
2021/05/05 05:21:49;;;;;;;;;;;5.70;99.90;;;;;;5091163;28;19908;-69
2021/05/05 05:24:14;;;;;;;;;;;5.70;99.90;;;;;;5089856;28;19908;-69
2021/05/05 05:26:40;;;;;;;;;;;5.70;99.90;;;;;;5081612;28;19908;-70
2021/05/05 05:29:06;;;;;;;;;;;5.70;99.90;;;;;;5091028;28;19912;-69
2021/05/05 05:31:32;;;;;;;;;;;5.80;99.90;;;;;;5091455;28;19953;-69
2021/05/05 05:33:57;;;;;;;;;;;5.80;99.90;;;;;;5091124;28;20315;-69
2021/05/05 05:36:23;;;;;;;;;;;5.80;99.90;;;;;;5089932;28;20361;-70
2021/05/05 05:38:48;;;;;;;;;;;5.90;99.90;;;;;;5091162;28;20078;-69
2021/05/05 05:41:14;;;;;;;;;;;5.90;99.90;;;;;;5091294;28;20340;-69
2021/05/05 05:43:39;;;;;;;;;;;5.90;99.90;;;;;;5091043;28;19908;-71
2021/05/05 05:46:05;;;;;;;;;;;5.90;99.90;;;;;;5090097;28;20291;-70
2021/05/05 05:48:30;;;;;;;;;;;5.90;99.90;;;;;;5090739;28;19935;-70
2021/05/05 05:50:56;;;;;;;;;;;5.90;99.90;;;;;;5090677;28;19912;-70
2021/05/05 05:53:22;;;;;;;;;;;5.90;99.90;;;;;;5090868;28;20361;-71
2021/05/05 05:55:47;;;;;;;;;;;5.90;99.90;;;;;;5089197;28;19914;-69
2021/05/05 05:58:13;;;;;;;;;;;6.00;99.90;;;;;;5090797;28;19915;-69
2021/05/05 06:00:38;;;;;;;;;;;6.00;99.90;;;;;;5090766;28;20315;-70
2021/05/05 06:03:05;;;;;;;;;;;6.00;99.90;;;;;;5089589;28;20353;-70
2021/05/05 06:05:34;;;;;;;;;;;6.00;99.90;;;;;;5089553;28;19918;-70
2021/05/05 06:08:01;;;;;;;;;;;6.10;99.90;;;;;;5089688;28;19916;-71
2021/05/05 06:10:27;;;;;;;;;;;6.10;99.90;;;;;;5090055;28;19912;-69
2021/05/05 06:12:53;;;;;;;;;;;6.10;99.90;;;;;;5090279;28;19938;-69
2021/05/05 06:15:19;;;;;;;;;;;6.20;99.90;;;;;;5091008;28;19912;-70
2021/05/05 06:17:44;;;;;;;;;;;6.20;99.90;;;;;;5088706;28;20273;-70
2021/05/05 06:20:10;;;;;;;;;;;6.20;99.90;;;;;;5094715;28;19954;-70
2021/05/05 06:22:37;;;;;;;;;;;6.20;99.90;;;;;;5094837;28;19908;-70
2021/05/05 06:25:03;;;;;;;;;;;6.30;99.90;;;;;;5094755;28;20392;-70
2021/05/05 06:27:29;;;;;;;;;;;6.30;99.90;;;;;;5093616;28;19993;-69
2021/05/05 06:29:55;;;;;;;;;;;6.30;99.90;;;;;;5094616;28;19912;-70
2021/05/05 06:32:20;;;;;;;;;;;6.40;99.90;;;;;;5094051;28;19916;-70
2021/05/05 06:34:46;;;;;;;;;;;6.40;99.90;;;;;;5094451;28;19908;-69
2021/05/05 06:37:11;;;;;;;;;;;6.50;99.90;;;;;;5093306;28;19913;-69
2021/05/05 06:39:37;;;;;;;;;;;6.60;99.90;;;;;;5094117;28;19912;-70
2021/05/05 06:42:03;;;;;;;;;;;6.70;99.90;;;;;;5094326;28;19908;-70
2021/05/05 06:44:28;;;;;;;;;;;6.90;99.90;;;;;;5089209;28;19995;-70
2021/05/05 06:46:57;;;;;;;;;;;7.10;99.90;;;;;;5084563;28;19999;-70
2021/05/05 06:49:23;;;;;;;;;;;7.20;99.90;;;;;;5091666;28;19919;-70
2021/05/05 06:51:49;;;;;;;;;;;7.20;99.90;;;;;;5091740;28;19915;-70
2021/05/05 06:54:14;;;;;;;;;;;7.30;99.90;;;;;;5091665;28;19987;-70
2021/05/05 06:56:40;;;;;;;;;;;7.60;99.90;;;;;;5092991;28;20509;-70
2021/05/05 06:59:06;;;;;;;;;;;7.90;99.90;;;;;;5094070;28;19918;-70
2021/05/05 07:01:31;;;;;;;;;;;8.30;99.90;;;;;;5094149;28;19912;-71
2021/05/05 07:03:57;;;;;;;;;;;8.80;99.90;;;;;;5091723;28;19908;-70
2021/05/05 07:06:22;;;;;;;;;;;9.40;99.90;;;;;;5090066;28;19908;-70
2021/05/05 07:08:48;;;;;;;;;;;9.90;99.90;;;;;;5092047;28;20023;-70
2021/05/05 07:11:13;;;;;;;;;;;10.00;99.90;;;;;;5093841;28;20412;-72
2021/05/05 07:13:39;;;;;;;;;;;10.20;99.90;;;;;;5093958;28;19914;-70
2021/05/05 07:16:04;;;;;;;;;;;10.30;99.90;;;;;;5092787;28;19912;-70
2021/05/05 07:18:30;;;;;;;;;;;10.40;99.90;;;;;;5092997;28;19908;-70
2021/05/05 07:20:58;;;;;;;;;;;10.60;99.90;;;;;;5093701;28;19909;-72
2021/05/05 07:23:27;;;;;;;;;;;10.20;99.90;;;;;;5093668;28;19908;-71
2021/05/05 07:25:52;;;;;;;;;;;9.70;99.90;;;;;;5092473;28;19957;-69
2021/05/05 07:28:18;;;;;;;;;;;9.10;99.90;;;;;;5093691;28;19913;-70
2021/05/05 07:30:43;;;;;;;;;;;8.90;99.90;;;;;;5091674;28;19915;-70
2021/05/05 07:33:11;;;;;;;;;;;9.30;99.90;;;;;;5092656;28;20017;-70
2021/05/05 07:35:37;;;;;;;;;;;9.50;99.90;;;;;;5092433;28;19912;-70
2021/05/05 07:48:39;;;;;;;;;;;9.30;99.90;;;;;;5092241;28;19912;-69
2021/05/05 07:50:56;;;;;;;;;;;8.90;99.90;;;;;;5092349;28;19948;-70
2021/05/05 07:53:23;;;;;;;;;;;8.90;99.90;;;;;;5093101;28;19947;-70
2021/05/05 07:55:49;;;;;;;;;;;9.50;99.90;;;;;;5092149;28;20435;-71
2021/05/05 07:58:14;;;;;;;;;;;9.60;99.90;;;;;;5093193;28;20389;-72
2021/05/05 08:00:40;;;;;;;;;;;9.40;99.90;;;;;;5092731;28;19995;-70
2021/05/05 08:03:05;;;;;;;;;;;9.70;99.90;;;;;;5087582;28;19908;-70
2021/05/05 08:05:31;;;;;;;;;;;9.90;99.90;;;;;;5092189;28;20007;-71
2021/05/05 08:07:56;;;;;;;;;;;9.80;99.90;;;;;;5091872;28;19908;-70
2021/05/05 08:10:22;;;;;;;;;;;10.10;99.90;;;;;;5092917;28;20554;-70
2021/05/05 08:12:48;;;;;;;;;;;10.60;99.60;;;;;;5092872;28;19908;-70
2021/05/05 08:15:14;;;;;;;;;;;10.50;98.40;;;;;;5092722;28;20349;-70
2021/05/05 08:17:40;;;;;;;;;;;10.20;99.20;;;;;;5091339;28;20269;-70
2021/05/05 08:20:06;;;;;;;;;;;9.90;99.90;;;;;;5092544;28;19923;-70
2021/05/05 08:22:32;;;;;;;;;;;9.70;99.70;;;;;;5092278;28;20300;-70
2021/05/05 08:24:57;;;;;;;;;;;9.40;99.90;;;;;;5092324;28;19908;-70
2021/05/05 08:27:23;;;;;;;;;;;9.10;99.90;;;;;;5091453;28;20273;-72
2021/05/05 08:29:49;;;;;;;;;;;8.90;99.90;;;;;;5092033;28;20017;-70
2021/05/05 08:32:14;;;;;;;;;;;8.70;99.90;;;;;;5088009;28;19908;-70
2021/05/05 08:34:40;;;;;;;;;;;8.70;99.90;;;;;;5083752;28;19915;-70
2021/05/05 08:37:05;;;;;;;;;;;8.70;99.90;;;;;;5088730;28;19913;-71
2021/05/05 08:39:31;;;;;;;;;;;8.50;99.90;;;;;;5090740;28;19912;-70
2021/05/05 08:41:58;;;;;;;;;;;8.30;99.90;;;;;;5090975;28;20388;-70
2021/05/05 08:44:24;;;;;;;;;;;8.10;99.90;;;;;;5092089;28;20121;-70
2021/05/05 08:46:50;;;;;;;;;;;8.00;99.90;;;;;;5090643;28;19908;-72
2021/05/05 08:49:16;;;;;;;;;;;7.80;99.90;;;;;;5091406;28;20004;-70
2021/05/05 08:51:41;;;;;;;;;;;7.70;99.90;;;;;;5091859;28;19908;-70
2021/05/05 08:54:08;;;;;;;;;;;7.60;99.90;;;;;;5090155;28;20111;-70
2021/05/05 08:56:37;;;;;;;;;;;7.70;99.90;;;;;;5090921;28;20332;-70
2021/05/05 08:59:10;;;;;;;;;;;8.00;99.90;;;;;;5091672;28;19977;-70
2021/05/05 09:01:36;;;;;;;;;;;8.80;99.90;;;;;;5091687;28;19908;-70
2021/05/05 09:04:02;;;;;;;;;;;9.60;99.90;;;;;;5085011;28;19947;-72
2021/05/05 09:06:46;;;;;;;;;;;10.10;99.90;;;;;;5088961;28;19970;-70
2021/05/05 09:09:29;;;;;;;;;;;10.40;99.90;;;;;;5091491;28;20360;-72
2021/05/05 09:11:54;;;;;;;;;;;10.70;99.90;;;;;;5091649;28;19977;-70
2021/05/05 09:14:20;;;;;;;;;;;10.70;99.60;;;;;;5089582;28;20424;-71
2021/05/05 09:16:45;;;;;;;;;;;10.50;97.70;;;;;;5081691;28;19908;-70
2021/05/05 09:19:11;;;;;;;;;;;10.00;97.70;;;;;;5091317;28;20356;-70
2021/05/05 09:21:37;;;;;;;;;;;10.00;97.70;;;;;;5091171;28;19908;-71
2021/05/05 09:24:23;;;;;;;;;;;10.60;98.90;;;;;;5091436;28;20360;-71
2021/05/05 09:26:50;;;;;;;;;;;11.30;98.60;;;;;;5090735;28;19908;-71
2021/05/05 09:29:15;;;;;;;;;;;11.50;97.30;;;;;;5091245;28;19980;-71
2021/05/05 09:31:41;;;;;;;;;;;11.90;95.20;;;;;;5091412;28;19916;-70
2021/05/05 09:34:09;;;;;;;;;;;12.10;94.40;;;;;;5091239;28;19908;-71
2021/05/05 09:36:35;;;;;;;;;;;12.10;92.30;;;;;;5090615;28;19908;-71
2021/05/05 09:39:02;;;;;;;;;;;12.20;91.00;;;;;;5089904;28;19920;-71
2021/05/05 09:41:29;;;;;;;;;;;12.30;94.10;;;;;;5091197;28;19915;-70
2021/05/05 09:43:59;;;;;;;;;;;12.50;91.80;;;;;;5091193;28;19938;-72
2021/05/05 09:46:30;;;;;;;;;;;12.30;91.00;;;;;;5091040;28;19980;-70
2021/05/05 09:49:15;;;;;;;;;;;12.10;92.20;;;;;;5111427;28;20006;-71
2021/05/05 09:51:47;;;;;;;;;;;11.90;92.80;;;;;;5111156;28;19952;-71
2021/05/05 09:54:23;;;;;;;;;;;12.10;93.70;;;;;;5116502;28;19915;-71
2021/05/05 09:56:49;;;;;;;;;;;12.40;92.80;;;;;;5117311;28;19952;-71
2021/05/05 09:59:14;;;;;;;;;;;12.90;92.00;;;;;;5118295;28;19999;-71
2021/05/05 10:01:40;;;;;;;;;;;12.70;90.50;;;;;;5118406;28;19915;-70
2021/05/05 10:04:07;;;;;;;;;;;12.40;90.20;;;;;;5118126;28;19907;-71
2021/05/05 10:06:33;;;;;;;;;;;12.20;92.00;;;;;;5092826;28;20383;-71
2021/05/05 10:09:04;;;;;;;;;;;12.50;92.30;;;;;;5097650;28;20000;-70
2021/05/05 10:11:31;;;;;;;;;;;13.00;88.40;;;;;;5097732;28;19908;-70
2021/05/05 10:13:58;;;;;;;;;;;13.30;89.70;;;;;;5097788;28;19953;-71
2021/05/05 10:16:24;;;;;;;;;;;13.70;86.80;;;;;;5096679;28;19908;-71
2021/05/05 10:18:50;;;;;;;;;;;14.00;87.70;;;;;;5097185;28;19908;-71
2021/05/05 10:21:19;;;;;;;;;;;13.90;86.00;;;;;;5091594;28;20379;-71
2021/05/05 10:23:44;;;;;;;;;;;13.80;83.40;;;;;;5097462;28;19999;-71
2021/05/05 10:26:11;;;;;;;;;;;13.70;86.60;;;;;;5096174;28;20353;-71
2021/05/05 10:28:37;;;;;;;;;;;13.70;84.30;;;;;;5096863;28;19920;-71
2021/05/05 10:31:03;;;;;;;;;;;13.90;83.20;;;;;;5097071;28;20384;-71
2021/05/05 10:33:36;;;;;;;;;;;13.90;84.80;;;;;;5097035;28;19912;-70
2021/05/05 10:36:20;;;;;;;;;;;14.10;82.60;;;;;;5096743;28;19908;-72
2021/05/05 10:38:46;;;;;;;;;;;13.90;80.30;;;;;;5116011;28;20483;-70
2021/05/05 10:41:12;;;;;;;;;;;13.40;83.10;;;;;;5117483;28;19957;-71
2021/05/05 10:43:44;;;;;;;;;;;12.90;82.20;;;;;;5117352;28;19954;-71
2021/05/05 10:46:25;;;;;;;;;;;12.60;82.30;;;;;;5116693;28;19908;-70
2021/05/05 10:49:01;;;;;;;;;;;12.70;84.80;;;;;;5117266;28;20101;-71
2021/05/05 10:51:49;;;;;;;;;;;12.90;84.00;;;;;;5117167;28;19914;-71
2021/05/05 10:54:15;;;;;;;;;;;13.10;81.70;;;;;;5117299;28;20337;-71
2021/05/05 10:56:43;;;;;;;;;;;13.00;82.20;;;;;;5114710;28;20359;-73
2021/05/05 10:59:10;;;;;;;;;;;12.50;80.40;;;;;;5117154;28;19930;-71
2021/05/05 11:01:37;;;;;;;;;;;12.10;83.20;;;;;;5117406;28;19908;-71
2021/05/05 11:04:04;;;;;;;;;;;11.70;83.60;;;;;;5116704;28;19907;-72
2021/05/05 11:06:29;;;;;;;;;;;11.10;86.50;;;;;;5090077;28;20265;-71
2021/05/05 11:08:56;;;;;;;;;;;10.30;93.00;;;;;;5092977;28;19977;-71
2021/05/05 11:11:37;;;;;;;;;;;9.00;96.20;;;;;;5093645;28;19919;-70
2021/05/05 11:14:03;;;;;;;;;;;7.90;99.20;;;;;;5093617;28;19908;-72
2021/05/05 11:17:07;;;;;;;;;;;7.10;99.90;;;;;;5092497;28;19987;-70
2021/05/05 11:19:41;;;;;;;;;;;6.70;99.90;;;;;;5051079;28;20420;-70
2021/05/05 11:22:09;;;;;;;;;;;6.30;99.90;;;;;;5051235;28;20358;-70
2021/05/05 11:24:35;;;;;;;;;;;6.20;99.90;;;;;;5073536;28;19912;-70
2021/05/05 11:27:02;;;;;;;;;;;6.10;99.90;;;;;;5092467;28;20364;-70
2021/05/05 11:29:37;;;;;;;;;;;6.10;99.90;;;;;;5093147;28;19963;-71
2021/05/05 11:32:04;;;;;;;;;;;6.10;99.90;;;;;;5093492;28;19908;-71
2021/05/05 11:34:31;;;;;;;;;;;6.00;99.90;;;;;;5093514;28;20004;-72
2021/05/05 11:37:02;;;;;;;;;;;6.00;99.90;;;;;;5085973;28;20381;-70
2021/05/05 11:39:29;;;;;;;;;;;6.00;99.90;;;;;;5092821;28;20293;-72
2021/05/05 11:41:56;;;;;;;;;;;6.20;99.90;;;;;;5093055;28;19938;-72
2021/05/05 11:44:34;;;;;;;;;;;6.40;99.90;;;;;;5092990;28;19916;-70
2021/05/05 11:47:00;;;;;;;;;;;6.70;99.90;;;;;;5084509;28;20014;-72
2021/05/05 11:49:30;;;;;;;;;;;6.90;99.90;;;;;;5092586;28;19919;-71
2021/05/05 11:51:55;;;;;;;;;;;6.90;99.90;;;;;;5092648;28;20387;-70
2021/05/05 11:54:21;;;;;;;;;;;6.90;99.90;;;;;;5092732;28;19912;-70
2021/05/05 11:57:00;;;;;;;;;;;6.90;99.90;;;;;;5091464;28;20250;-70
2021/05/05 11:59:26;;;;;;;;;;;7.30;99.90;;;;;;5092592;28;20285;-71
2021/05/05 12:01:51;;;;;;;;;;;8.10;99.90;;;;;;5082186;28;19932;-70
2021/05/05 12:04:21;;;;;;;;;;;8.80;99.90;;;;;;5072306;28;19916;-70
2021/05/05 12:06:47;;;;;;;;;;;9.30;99.90;;;;;;5089245;28;19908;-71
2021/05/05 12:09:19;;;;;;;;;;;9.80;99.90;;;;;;5091879;28;20276;-70
2021/05/05 12:11:45;;;;;;;;;;;10.20;99.90;;;;;;5092458;28;19955;-70
2021/05/05 12:14:25;;;;;;;;;;;10.60;99.90;;;;;;5092650;28;19912;-71
2021/05/05 12:16:51;;;;;;;;;;;11.20;99.90;;;;;;5091423;28;20049;-71
2021/05/05 12:19:17;;;;;;;;;;;11.60;99.90;;;;;;5092220;28;20399;-72
2021/05/05 12:21:42;;;;;;;;;;;12.00;99.50;;;;;;5092255;28;20418;-71
2021/05/05 12:24:09;;;;;;;;;;;12.20;98.70;;;;;;5092173;28;19908;-70
2021/05/05 12:26:35;;;;;;;;;;;12.30;98.60;;;;;;5091326;28;19908;-71
2021/05/05 12:29:04;;;;;;;;;;;12.50;99.20;;;;;;5092271;28;19966;-70
2021/05/05 12:31:31;;;;;;;;;;;12.60;96.90;;;;;;5092363;28;19978;-70
2021/05/05 12:33:57;;;;;;;;;;;12.40;96.70;;;;;;5092205;28;19908;-70
2021/05/05 12:36:24;;;;;;;;;;;12.40;96.10;;;;;;5084802;28;19911;-70
2021/05/05 12:38:50;;;;;;;;;;;12.20;95.80;;;;;;5092344;28;19998;-71
2021/05/05 12:41:20;;;;;;;;;;;12.10;96.80;;;;;;5092110;28;19950;-70
2021/05/05 12:43:47;;;;;;;;;;;12.20;97.10;;;;;;5091496;28;19957;-70
2021/05/05 12:46:20;;;;;;;;;;;12.50;96.30;;;;;;5091475;28;19908;-70
2021/05/05 12:48:46;;;;;;;;;;;12.60;95.50;;;;;;5091690;28;19912;-70
2021/05/05 12:51:12;;;;;;;;;;;12.70;94.80;;;;;;5091758;28;20426;-70
2021/05/05 12:53:53;;;;;;;;;;;12.90;96.30;;;;;;5091700;28;20174;-70
2021/05/05 12:56:20;;;;;;;;;;;12.90;95.30;;;;;;5090941;28;19912;-70
2021/05/05 12:58:46;;;;;;;;;;;13.00;96.60;;;;;;5091809;28;19908;-73
2021/05/05 13:01:13;;;;;;;;;;;13.00;96.50;;;;;;5091426;28;19912;-70
2021/05/05 13:03:39;;;;;;;;;;;13.20;96.00;;;;;;5089423;28;19918;-71
2021/05/05 13:06:06;;;;;;;;;;;13.20;94.50;;;;;;5084807;28;19908;-70
2021/05/05 13:08:41;;;;;;;;;;;12.80;95.20;;;;;;5091220;28;19912;-73
2021/05/05 13:11:09;;;;;;;;;;;12.80;95.20;;;;;;5090364;28;20433;-71
2021/05/05 13:13:50;;;;;;;;;;;12.70;95.20;;;;;;5091376;28;19916;-71
2021/05/05 13:16:27;;;;;;;;;;;12.40;94.70;;;;;;5090848;28;20273;-70
2021/05/05 13:32:35;;;;;;;;;;;11.50;93.20;;;;;;5090703;28;20332;-70
2021/05/05 13:35:19;;;;;;;;;;;11.20;93.10;;;;;;5087564;28;19930;-71
2021/05/05 13:38:01;;;;;;;;;;;10.90;93.50;;;;;;5081485;28;19923;-71
2021/05/05 13:40:29;;;;;;;;;;;10.20;94.70;;;;;;5090980;28;19909;-70
2021/05/05 13:42:58;;;;;;;;;;;9.60;96.50;;;;;;5090582;28;19908;-71
2021/05/05 13:45:23;;;;;;;;;;;9.20;97.90;;;;;;5091005;28;20284;-73
2021/05/05 13:48:07;;;;;;;;;;;8.80;99.40;;;;;;5089285;28;19913;-71
2021/05/05 13:50:33;;;;;;;;;;;8.80;99.90;;;;;;5091157;28;19916;-72
2021/05/05 13:52:59;;;;;;;;;;;8.90;98.70;;;;;;5090453;28;20364;-72
2021/05/05 13:55:24;;;;;;;;;;;9.40;99.00;;;;;;5090429;28;19962;-71
2021/05/05 13:57:50;;;;;;;;;;;9.90;97.90;;;;;;5089570;28;20353;-70
2021/05/05 14:00:16;;;;;;;;;;;10.30;96.90;;;;;;5090756;28;19961;-71
2021/05/05 14:02:42;;;;;;;;;;;10.40;96.00;;;;;;5090555;28;19966;-71
2021/05/05 14:05:11;;;;;;;;;;;10.40;96.30;;;;;;5086095;28;20012;-71
2021/05/05 14:07:37;;;;;;;;;;;10.30;96.50;;;;;;5088434;28;20258;-71
2021/05/05 14:10:04;;;;;;;;;;;10.30;97.50;;;;;;5090649;28;19963;-73
2021/05/05 14:12:29;;;;;;;;;;;10.20;97.10;;;;;;5090519;28;19914;-71
2021/05/05 14:14:55;;;;;;;;;;;10.20;97.20;;;;;;5090791;28;20003;-70
2021/05/05 14:17:20;;;;;;;;;;;10.10;96.00;;;;;;5090103;28;20170;-71
2021/05/05 14:19:46;;;;;;;;;;;9.80;96.20;;;;;;5090319;28;20007;-71
2021/05/05 14:22:11;;;;;;;;;;;9.60;96.60;;;;;;5090332;28;19912;-73
2021/05/05 14:24:37;;;;;;;;;;;9.40;97.70;;;;;;5090280;28;20045;-70
2021/05/05 14:27:02;;;;;;;;;;;9.40;98.80;;;;;;5089912;28;19908;-70
2021/05/05 14:29:28;;;;;;;;;;;10.00;98.80;;;;;;5090308;28;19913;-73
2021/05/05 14:31:53;;;;;;;;;;;10.70;97.70;;;;;;5090561;28;19965;-71
2021/05/05 14:34:19;;;;;;;;;;;11.40;98.40;;;;;;5090515;28;19912;-71
2021/05/05 14:36:44;;;;;;;;;;;11.90;96.90;;;;;;5083435;28;19915;-71
2021/05/05 14:39:16;;;;;;;;;;;12.40;96.80;;;;;;5090233;28;19982;-71
2021/05/05 14:41:43;;;;;;;;;;;12.80;95.60;;;;;;5093939;28;19912;-70
2021/05/05 14:49:02;;;;;;;;;;;13.10;93.70;;;;;;5094243;28;19941;-71
2021/05/05 14:51:28;;;;;;;;;;;12.50;93.60;;;;;;5093806;28;19908;-73
2021/05/05 14:53:54;;;;;;;;;;;12.00;94.80;;;;;;5093775;28;19923;-73